Time;durP1;ratioP1;P1;durP2;ratioP2;P2;SDS_P1;SDS_P2;PMS_P1;PMS_P2;Temp;Humidity;BMP_temperature;BMP_pressure;BME280_temperature;BME280_humidity;BME280_pressure;Samples;Min_cycle;Max_cycle;Signal;HPM_P1;HPM_P2
2021/09/03 00:01:49;;;;;;;13.93;7.73;;;;;;;;;;5111290;28;20743;-72
2021/09/03 00:04:14;;;;;;;12.38;7.72;;;;;;;;;;5111433;28;20254;-72
2021/09/03 00:06:39;;;;;;;14.53;8.77;;;;;;;;;;5111252;28;20114;-69
2021/09/03 00:09:04;;;;;;;13.35;8.10;;;;;;;;;;5111511;28;20249;-70
2021/09/03 00:11:29;;;;;;;18.80;9.38;;;;;;;;;;5111240;28;20026;-70
2021/09/03 00:13:55;;;;;;;18.20;9.53;;;;;;;;;;5111222;28;20024;-70
2021/09/03 00:16:20;;;;;;;13.33;8.70;;;;;;;;;;5111234;28;20257;-70
2021/09/03 00:18:46;;;;;;;20.33;9.25;;;;;;;;;;5111264;28;20345;-70
2021/09/03 00:21:11;;;;;;;21.13;9.48;;;;;;;;;;5111241;28;20101;-70
2021/09/03 00:23:36;;;;;;;18.38;8.95;;;;;;;;;;5092691;28;20035;-70
2021/09/03 00:26:02;;;;;;;20.63;9.88;;;;;;;;;;5111766;28;20079;-70
2021/09/03 00:28:27;;;;;;;19.83;9.35;;;;;;;;;;5111157;28;20538;-70
2021/09/03 00:30:52;;;;;;;17.80;9.45;;;;;;;;;;5111220;28;20026;-70
2021/09/03 00:33:17;;;;;;;15.07;8.83;;;;;;;;;;5110898;28;20023;-70
2021/09/03 00:35:42;;;;;;;17.37;8.23;;;;;;;;;;5110828;28;20246;-70
2021/09/03 00:38:08;;;;;;;15.75;8.77;;;;;;;;;;5110081;28;20796;-70
2021/09/03 00:40:33;;;;;;;20.23;9.87;;;;;;;;;;5110858;28;20465;-70
2021/09/03 00:42:58;;;;;;;18.50;8.98;;;;;;;;;;5110037;28;20292;-70
2021/09/03 00:45:23;;;;;;;15.60;9.77;;;;;;;;;;5110893;28;20027;-70
2021/09/03 00:47:48;;;;;;;20.52;9.25;;;;;;;;;;5110942;28;20269;-70
2021/09/03 00:50:13;;;;;;;16.37;9.27;;;;;;;;;;5110791;28;20045;-70
2021/09/03 00:52:39;;;;;;;23.27;9.40;;;;;;;;;;5110688;28;20321;-70
2021/09/03 00:55:05;;;;;;;16.52;10.00;;;;;;;;;;5110702;28;20249;-70
2021/09/03 00:57:30;;;;;;;14.85;10.13;;;;;;;;;;5115959;22;20052;-85
2021/09/03 00:59:56;;;;;;;15.07;9.65;;;;;;;;;;5068441;28;20094;-85
2021/09/03 01:02:21;;;;;;;18.52;10.15;;;;;;;;;;5080534;28;20021;-84
2021/09/03 01:04:47;;;;;;;21.35;10.30;;;;;;;;;;5086895;28;20040;-84
2021/09/03 01:07:13;;;;;;;18.38;9.70;;;;;;;;;;5084229;28;20452;-84
2021/09/03 01:09:38;;;;;;;18.30;9.52;;;;;;;;;;5087694;28;20021;-85
2021/09/03 01:12:03;;;;;;;17.65;10.15;;;;;;;;;;5074298;28;20283;-85
2021/09/03 01:14:28;;;;;;;22.42;10.55;;;;;;;;;;5071684;28;20090;-85
2021/09/03 01:16:54;;;;;;;18.02;10.05;;;;;;;;;;5072537;28;20024;-84
2021/09/03 01:19:19;;;;;;;21.95;9.55;;;;;;;;;;5072175;28;20021;-85
2021/09/03 01:21:48;;;;;;;18.17;9.27;;;;;;;;;;5070776;28;20174;-84
2021/09/03 01:24:13;;;;;;;24.52;10.63;;;;;;;;;;5070710;28;20319;-84
2021/09/03 01:26:39;;;;;;;19.17;10.23;;;;;;;;;;5071064;28;20016;-84
2021/09/03 01:29:04;;;;;;;22.17;9.73;;;;;;;;;;5070639;28;20620;-85
2021/09/03 01:31:29;;;;;;;16.93;10.20;;;;;;;;;;5070975;28;20047;-84
2021/09/03 01:33:57;;;;;;;19.27;10.47;;;;;;;;;;5070117;28;20637;-84
2021/09/03 01:36:26;;;;;;;16.33;10.05;;;;;;;;;;5071880;28;20341;-85
2021/09/03 01:38:52;;;;;;;16.95;9.57;;;;;;;;;;5070558;28;20103;-85
2021/09/03 01:41:17;;;;;;;18.05;9.77;;;;;;;;;;5070666;28;20174;-84
2021/09/03 01:43:42;;;;;;;16.13;9.57;;;;;;;;;;5070258;28;20048;-85
2021/09/03 01:46:07;;;;;;;21.77;9.90;;;;;;;;;;5071591;28;20600;-85
2021/09/03 01:48:32;;;;;;;21.65;10.10;;;;;;;;;;5071295;28;20251;-85
2021/09/03 01:50:58;;;;;;;21.23;10.82;;;;;;;;;;5073055;28;20028;-84
2021/09/03 01:53:23;;;;;;;25.33;10.90;;;;;;;;;;5071582;28;20021;-85
2021/09/03 01:55:48;;;;;;;21.02;10.82;;;;;;;;;;5073332;28;20279;-84
2021/09/03 01:58:13;;;;;;;22.77;10.47;;;;;;;;;;5071040;28;20028;-85
2021/09/03 02:00:38;;;;;;;20.05;10.40;;;;;;;;;;5070391;28;20314;-84
2021/09/03 02:03:04;;;;;;;22.45;11.05;;;;;;;;;;5069478;28;20052;-85
2021/09/03 02:05:29;;;;;;;17.00;9.93;;;;;;;;;;5070336;28;20115;-84
2021/09/03 02:07:54;;;;;;;25.77;10.67;;;;;;;;;;5071280;28;20255;-85
2021/09/03 02:10:19;;;;;;;24.27;11.63;;;;;;;;;;5070266;28;20335;-85
2021/09/03 02:12:44;;;;;;;21.50;10.55;;;;;;;;;;5069724;28;20267;-85
2021/09/03 02:15:10;;;;;;;22.05;9.77;;;;;;;;;;5072602;28;20035;-84
2021/09/03 02:17:35;;;;;;;17.40;10.07;;;;;;;;;;5070645;28;20028;-85
2021/09/03 02:20:00;;;;;;;30.30;10.57;;;;;;;;;;5069422;28;20021;-84
2021/09/03 02:22:25;;;;;;;14.47;10.17;;;;;;;;;;5068881;28;20012;-85
2021/09/03 02:24:50;;;;;;;15.63;9.93;;;;;;;;;;5069942;28;20715;-84
2021/09/03 02:27:16;;;;;;;19.73;9.10;;;;;;;;;;5069700;28;20588;-85
2021/09/03 02:29:41;;;;;;;21.55;9.98;;;;;;;;;;5069827;28;20115;-84
2021/09/03 02:32:06;;;;;;;16.70;10.90;;;;;;;;;;5069077;28;20028;-84
2021/09/03 02:34:32;;;;;;;17.08;10.23;;;;;;;;;;5069432;28;20308;-85
2021/09/03 02:36:57;;;;;;;16.55;10.20;;;;;;;;;;5069286;28;20028;-85
2021/09/03 02:39:22;;;;;;;19.13;10.00;;;;;;;;;;5070871;28;20016;-85
2021/09/03 02:41:47;;;;;;;17.05;9.48;;;;;;;;;;5069058;28;20282;-84
2021/09/03 02:44:12;;;;;;;27.33;11.20;;;;;;;;;;5070311;28;20020;-85
2021/09/03 02:46:38;;;;;;;20.23;10.33;;;;;;;;;;5069280;28;20367;-85
2021/09/03 02:49:03;;;;;;;18.63;9.73;;;;;;;;;;5070612;28;20259;-84
2021/09/03 02:51:28;;;;;;;19.05;10.32;;;;;;;;;;5070484;28;20013;-84
2021/09/03 02:53:53;;;;;;;22.67;10.48;;;;;;;;;;5068928;28;20553;-84
2021/09/03 02:56:19;;;;;;;18.80;9.63;;;;;;;;;;5070476;28;20111;-84
2021/09/03 02:58:44;;;;;;;16.97;10.03;;;;;;;;;;5070672;28;20255;-85
2021/09/03 03:01:09;;;;;;;20.95;10.93;;;;;;;;;;5070072;28;20275;-84
2021/09/03 03:03:34;;;;;;;24.15;12.02;;;;;;;;;;5069938;28;20094;-85
2021/09/03 03:06:00;;;;;;;17.38;10.25;;;;;;;;;;5068942;28;20063;-85
2021/09/03 03:08:25;;;;;;;21.13;10.40;;;;;;;;;;5071379;28;20355;-84
2021/09/03 03:10:50;;;;;;;21.23;10.27;;;;;;;;;;5069096;28;20029;-84
2021/09/03 03:13:23;;;;;;;17.23;10.27;;;;;;;;;;5068216;28;20116;-85
2021/09/03 03:15:49;;;;;;;17.70;9.90;;;;;;;;;;5068805;28;20385;-84
2021/09/03 03:18:14;;;;;;;22.92;9.43;;;;;;;;;;5068484;28;20020;-85
2021/09/03 03:20:40;;;;;;;17.75;10.15;;;;;;;;;;5069970;28;20028;-85
2021/09/03 03:23:06;;;;;;;19.17;10.25;;;;;;;;;;5068041;28;20107;-85
2021/09/03 03:25:31;;;;;;;17.75;9.38;;;;;;;;;;5068806;28;20542;-85
2021/09/03 03:27:56;;;;;;;18.98;10.13;;;;;;;;;;5069736;28;20016;-84
2021/09/03 03:30:21;;;;;;;22.70;10.95;;;;;;;;;;5069495;28;20029;-84
2021/09/03 03:32:46;;;;;;;15.43;9.82;;;;;;;;;;5069135;28;20020;-84
2021/09/03 03:35:12;;;;;;;20.33;10.20;;;;;;;;;;5070071;28;20493;-85
2021/09/03 03:37:37;;;;;;;15.55;10.00;;;;;;;;;;5068439;28;20387;-84
2021/09/03 03:40:02;;;;;;;14.93;9.60;;;;;;;;;;5068413;28;20035;-84
2021/09/03 03:42:27;;;;;;;15.13;9.68;;;;;;;;;;5068105;28;20024;-85
2021/09/03 03:44:53;;;;;;;20.38;9.07;;;;;;;;;;5068129;28;20023;-84
2021/09/03 03:47:18;;;;;;;23.67;10.33;;;;;;;;;;5069250;28;20020;-85
2021/09/03 03:49:43;;;;;;;18.25;10.40;;;;;;;;;;5068290;28;20239;-84
2021/09/03 03:52:08;;;;;;;17.80;10.18;;;;;;;;;;5067465;28;20020;-85
2021/09/03 03:54:33;;;;;;;19.00;10.30;;;;;;;;;;5069429;28;20016;-85
2021/09/03 03:56:59;;;;;;;17.02;9.82;;;;;;;;;;5069426;28;20440;-84
2021/09/03 03:59:25;;;;;;;16.58;9.88;;;;;;;;;;5067808;28;20473;-85
2021/09/03 04:01:50;;;;;;;17.02;10.30;;;;;;;;;;5068930;28;20052;-84
2021/09/03 04:04:15;;;;;;;17.67;9.52;;;;;;;;;;5068907;28;20055;-85
2021/09/03 04:06:40;;;;;;;17.40;10.07;;;;;;;;;;5067990;28;20020;-84
2021/09/03 04:09:06;;;;;;;19.67;9.83;;;;;;;;;;5069126;28;20009;-84
2021/09/03 04:11:31;;;;;;;22.10;10.03;;;;;;;;;;5065871;28;20286;-84
2021/09/03 04:13:56;;;;;;;16.63;8.98;;;;;;;;;;5067655;28;20255;-84
2021/09/03 04:16:21;;;;;;;23.60;10.35;;;;;;;;;;5067646;28;20028;-85
2021/09/03 04:18:47;;;;;;;25.35;10.60;;;;;;;;;;5067564;28;20279;-84
2021/09/03 04:21:12;;;;;;;14.80;9.15;;;;;;;;;;5067311;28;20371;-84
2021/09/03 04:23:37;;;;;;;17.97;9.90;;;;;;;;;;5067213;28;20120;-85
2021/09/03 04:26:02;;;;;;;20.73;9.60;;;;;;;;;;5068142;28;20752;-85
2021/09/03 04:28:27;;;;;;;18.15;9.35;;;;;;;;;;5068754;28;20031;-84
2021/09/03 04:30:53;;;;;;;14.20;9.55;;;;;;;;;;5075190;28;20028;-85
2021/09/03 04:33:18;;;;;;;22.98;10.15;;;;;;;;;;5069601;28;20023;-84
2021/09/03 04:35:43;;;;;;;17.85;9.95;;;;;;;;;;5068297;28;20025;-84
2021/09/03 04:38:08;;;;;;;17.08;10.07;;;;;;;;;;5067369;28;20024;-84
2021/09/03 04:40:34;;;;;;;15.37;9.60;;;;;;;;;;5067626;28;20024;-85
2021/09/03 04:42:59;;;;;;;18.45;10.65;;;;;;;;;;5066613;28;20256;-85
2021/09/03 04:45:24;;;;;;;20.30;9.98;;;;;;;;;;5066950;28;20111;-84
2021/09/03 04:47:50;;;;;;;22.30;10.82;;;;;;;;;;5067304;28;20012;-85
2021/09/03 04:50:16;;;;;;;21.40;10.13;;;;;;;;;;5067233;28;20048;-84
2021/09/03 04:52:41;;;;;;;19.70;10.77;;;;;;;;;;5068512;28;20013;-84
2021/09/03 04:55:06;;;;;;;20.35;10.25;;;;;;;;;;5068640;28;20020;-84
2021/09/03 04:57:37;;;;;;;17.00;10.15;;;;;;;;;;5067176;28;20055;-85
2021/09/03 05:00:02;;;;;;;;;;;;;;;;;;5067751;28;20077;-84
2021/09/03 05:02:27;;;;;;;15.02;9.27;;;;;;;;;;5068134;28;19908;-85
2021/09/03 05:04:52;;;;;;;16.83;10.33;;;;;;;;;;5067232;28;20255;-84
2021/09/03 05:07:17;;;;;;;18.57;11.07;;;;;;;;;;5068213;28;20258;-84
2021/09/03 05:09:43;;;;;;;17.93;10.17;;;;;;;;;;5067365;28;20243;-85
2021/09/03 05:12:08;;;;;;;22.02;11.57;;;;;;;;;;5066412;28;20255;-85
2021/09/03 05:14:33;;;;;;;22.55;10.02;;;;;;;;;;5067207;28;20021;-85
2021/09/03 05:16:58;;;;;;;16.43;9.90;;;;;;;;;;5068591;28;20020;-85
2021/09/03 05:19:23;;;;;;;18.03;10.43;;;;;;;;;;5066915;28;20750;-84
2021/09/03 05:21:49;;;;;;;20.63;10.20;;;;;;;;;;5067971;28;20332;-85
2021/09/03 05:24:14;;;;;;;18.93;9.37;;;;;;;;;;5067893;28;20405;-84
2021/09/03 05:26:39;;;;;;;21.15;10.75;;;;;;;;;;5068693;28;20308;-85
2021/09/03 05:29:04;;;;;;;19.90;9.48;;;;;;;;;;5068509;28;20082;-85
2021/09/03 05:31:30;;;;;;;18.38;9.43;;;;;;;;;;5067351;28;20021;-85
2021/09/03 05:33:55;;;;;;;21.02;10.18;;;;;;;;;;5066651;28;20079;-84
2021/09/03 05:36:22;;;;;;;18.90;10.18;;;;;;;;;;5068051;28;20016;-85
2021/09/03 05:38:48;;;;;;;19.48;11.38;;;;;;;;;;5067065;28;20025;-84
2021/09/03 05:41:13;;;;;;;24.75;9.55;;;;;;;;;;5066618;28;20127;-84
2021/09/03 05:43:38;;;;;;;17.27;10.27;;;;;;;;;;5067669;28;20477;-85
2021/09/03 05:46:04;;;;;;;19.50;11.07;;;;;;;;;;5067995;28;20020;-85
2021/09/03 05:48:29;;;;;;;17.88;9.88;;;;;;;;;;5066979;28;20709;-85
2021/09/03 05:50:54;;;;;;;18.30;10.30;;;;;;;;;;5066681;28;20077;-84
2021/09/03 05:53:19;;;;;;;22.10;9.57;;;;;;;;;;5066214;28;20259;-85
2021/09/03 05:55:44;;;;;;;16.55;10.15;;;;;;;;;;5068544;28;20397;-85
2021/09/03 05:58:10;;;;;;;19.17;10.85;;;;;;;;;;5070085;28;20031;-84
2021/09/03 06:00:35;;;;;;;20.65;10.55;;;;;;;;;;5071589;28;20025;-85
2021/09/03 06:03:00;;;;;;;25.48;11.10;;;;;;;;;;5071221;28;20104;-84
2021/09/03 06:05:25;;;;;;;20.00;10.43;;;;;;;;;;5070263;28;20023;-85
2021/09/03 06:07:50;;;;;;;19.92;11.15;;;;;;;;;;5070500;28;20117;-85
2021/09/03 06:10:16;;;;;;;17.88;10.93;;;;;;;;;;5070072;28;20016;-85
2021/09/03 06:12:41;;;;;;;15.35;9.23;;;;;;;;;;5071156;28;20024;-85
2021/09/03 06:15:07;;;;;;;16.13;9.35;;;;;;;;;;5069782;28;20504;-85
2021/09/03 06:17:32;;;;;;;23.80;10.40;;;;;;;;;;5070084;28;20024;-85
2021/09/03 06:19:57;;;;;;;15.23;9.88;;;;;;;;;;5070081;28;20027;-85
2021/09/03 06:22:23;;;;;;;20.58;9.40;;;;;;;;;;5069250;28;20436;-85
2021/09/03 06:24:48;;;;;;;16.42;9.13;;;;;;;;;;5070227;28;20107;-85
2021/09/03 06:27:13;;;;;;;21.02;9.57;;;;;;;;;;5070269;28;20012;-85
2021/09/03 06:29:43;;;;;;;16.73;9.25;;;;;;;;;;5072493;28;20020;-85
2021/09/03 06:32:10;;;;;;;22.58;10.25;;;;;;;;;;5084126;28;20020;-84
2021/09/03 06:34:36;;;;;;;15.57;8.23;;;;;;;;;;5092629;28;20011;-85
2021/09/03 06:37:01;;;;;;;17.50;9.45;;;;;;;;;;5086786;28;20458;-85
2021/09/03 06:39:26;;;;;;;16.92;9.27;;;;;;;;;;5069758;28;20028;-85
2021/09/03 06:41:52;;;;;;;16.02;9.18;;;;;;;;;;5069308;28;20517;-86
2021/09/03 06:44:17;;;;;;;20.95;9.02;;;;;;;;;;5130907;22;20150;-67
2021/09/03 06:46:42;;;;;;;19.60;9.27;;;;;;;;;;5083777;28;20020;-67
2021/09/03 06:49:07;;;;;;;20.95;9.82;;;;;;;;;;5072438;28;20576;-67
2021/09/03 06:51:33;;;;;;;17.93;9.30;;;;;;;;;;5072423;28;20025;-67
2021/09/03 06:53:58;;;;;;;18.90;8.52;;;;;;;;;;5072158;28;20732;-67
2021/09/03 06:56:23;;;;;;;12.07;7.77;;;;;;;;;;5072547;28;20027;-69
2021/09/03 06:58:48;;;;;;;11.70;6.57;;;;;;;;;;5072162;28;20251;-69
2021/09/03 07:01:13;;;;;;;13.40;7.90;;;;;;;;;;5072102;28;20270;-69
2021/09/03 07:03:38;;;;;;;11.60;7.77;;;;;;;;;;5071783;28;20320;-69
2021/09/03 07:06:04;;;;;;;16.57;8.47;;;;;;;;;;5071831;28;20017;-69
2021/09/03 07:08:29;;;;;;;12.87;7.70;;;;;;;;;;5071290;28;20254;-69
2021/09/03 07:10:54;;;;;;;17.33;8.13;;;;;;;;;;5071729;28;20309;-69
2021/09/03 07:13:19;;;;;;;17.13;7.63;;;;;;;;;;5071327;28;20016;-69
2021/09/03 07:15:44;;;;;;;13.67;7.37;;;;;;;;;;5071542;28;20622;-69
2021/09/03 07:18:10;;;;;;;11.00;6.93;;;;;;;;;;5071780;28;20028;-69
2021/09/03 07:20:35;;;;;;;16.33;7.75;;;;;;;;;;5071527;28;20024;-69
2021/09/03 07:23:01;;;;;;;12.73;6.90;;;;;;;;;;5071928;28;20013;-69
2021/09/03 07:25:26;;;;;;;11.32;6.93;;;;;;;;;;5071628;28;20016;-69
2021/09/03 07:27:51;;;;;;;11.38;7.13;;;;;;;;;;5071605;28;20367;-69
2021/09/03 07:30:17;;;;;;;11.03;6.97;;;;;;;;;;5071449;28;20036;-69
2021/09/03 07:32:44;;;;;;;9.60;7.00;;;;;;;;;;5071171;28;20113;-69
2021/09/03 07:35:09;;;;;;;19.27;7.50;;;;;;;;;;5071542;28;20581;-69
2021/09/03 07:37:34;;;;;;;11.20;6.78;;;;;;;;;;5071121;28;20103;-69
2021/09/03 07:39:59;;;;;;;9.95;6.95;;;;;;;;;;5071269;28;20027;-69
2021/09/03 07:42:25;;;;;;;11.47;6.13;;;;;;;;;;5071025;28;20097;-69
2021/09/03 07:44:50;;;;;;;12.47;7.43;;;;;;;;;;5071392;28;20017;-69
2021/09/03 07:47:15;;;;;;;11.07;6.30;;;;;;;;;;5070948;28;20616;-69
2021/09/03 07:49:40;;;;;;;13.57;7.50;;;;;;;;;;5071143;28;20024;-69
2021/09/03 07:52:06;;;;;;;9.77;6.37;;;;;;;;;;5071101;28;20024;-69
2021/09/03 07:54:31;;;;;;;8.98;6.03;;;;;;;;;;5070942;28;20099;-69
2021/09/03 07:56:56;;;;;;;13.90;7.03;;;;;;;;;;5071062;28;20017;-69
2021/09/03 07:59:21;;;;;;;9.23;7.27;;;;;;;;;;5071143;28;20518;-69
2021/09/03 08:01:46;;;;;;;12.27;6.80;;;;;;;;;;5071043;28;20297;-69
2021/09/03 08:04:12;;;;;;;9.53;6.70;;;;;;;;;;5070871;28;20259;-70
2021/09/03 08:06:37;;;;;;;14.93;6.72;;;;;;;;;;5070654;28;20047;-70
2021/09/03 08:09:03;;;;;;;8.57;5.80;;;;;;;;;;5070968;28;20013;-70
2021/09/03 08:11:28;;;;;;;10.00;6.68;;;;;;;;;;5070499;28;20319;-70
2021/09/03 08:13:53;;;;;;;9.20;6.10;;;;;;;;;;5070610;28;20470;-70
2021/09/03 08:16:18;;;;;;;15.23;6.93;;;;;;;;;;5070532;28;20487;-70
2021/09/03 08:18:44;;;;;;;12.93;7.03;;;;;;;;;;5070974;28;20028;-70
2021/09/03 08:21:09;;;;;;;13.40;7.17;;;;;;;;;;5070659;28;20091;-70
2021/09/03 08:23:35;;;;;;;12.03;6.90;;;;;;;;;;5070244;28;20537;-70
2021/09/03 08:26:00;;;;;;;11.38;6.53;;;;;;;;;;5070493;28;20031;-70
2021/09/03 08:28:25;;;;;;;11.77;6.13;;;;;;;;;;5070462;28;20017;-70
2021/09/03 08:30:50;;;;;;;11.80;6.63;;;;;;;;;;5070637;28;20496;-69
2021/09/03 08:33:16;;;;;;;11.47;5.90;;;;;;;;;;5070354;28;20028;-69
2021/09/03 08:35:41;;;;;;;8.67;6.53;;;;;;;;;;5070351;28;20020;-69
2021/09/03 08:38:06;;;;;;;9.55;7.32;;;;;;;;;;5070595;28;20263;-69
2021/09/03 08:40:31;;;;;;;10.73;7.67;;;;;;;;;;5070512;28;20032;-69
2021/09/03 08:42:57;;;;;;;11.60;7.45;;;;;;;;;;5070107;28;20316;-69
2021/09/03 08:45:22;;;;;;;10.80;7.78;;;;;;;;;;5070609;28;20017;-69
2021/09/03 08:47:47;;;;;;;10.77;7.97;;;;;;;;;;5070361;28;20502;-69
2021/09/03 08:50:14;;;;;;;10.87;7.70;;;;;;;;;;5070627;28;20803;-69
2021/09/03 08:52:43;;;;;;;10.18;7.50;;;;;;;;;;5069968;28;20309;-69
2021/09/03 08:55:09;;;;;;;12.65;7.07;;;;;;;;;;5070417;28;20044;-69
2021/09/03 08:57:34;;;;;;;9.75;7.00;;;;;;;;;;5070196;28;20067;-69
2021/09/03 09:00:08;;;;;;;11.10;6.60;;;;;;;;;;5070292;28;20017;-69
2021/09/03 09:02:33;;;;;;;10.70;6.95;;;;;;;;;;5070111;28;20306;-69
2021/09/03 09:04:58;;;;;;;12.87;5.80;;;;;;;;;;5052241;28;20505;-69
2021/09/03 09:07:27;;;;;;;12.87;6.70;;;;;;;;;;5070000;28;20023;-69
2021/09/03 09:09:52;;;;;;;10.02;6.00;;;;;;;;;;5070092;28;20323;-69
2021/09/03 09:12:18;;;;;;;10.00;6.63;;;;;;;;;;5069545;28;20541;-69
2021/09/03 09:15:01;;;;;;;10.55;6.35;;;;;;;;;;5070014;28;20028;-69
2021/09/03 09:17:32;;;;;;;13.45;7.32;;;;;;;;;;5069906;28;20017;-69
2021/09/03 09:19:57;;;;;;;11.65;5.97;;;;;;;;;;5070222;28;20017;-69
2021/09/03 09:22:23;;;;;;;16.35;6.85;;;;;;;;;;5069426;28;20023;-69
2021/09/03 09:24:48;;;;;;;11.27;7.55;;;;;;;;;;5070120;28;20027;-69
2021/09/03 09:27:22;;;;;;;16.97;6.87;;;;;;;;;;5070054;28;20094;-69
2021/09/03 09:29:47;;;;;;;15.48;6.75;;;;;;;;;;5070357;28;20024;-69
2021/09/03 09:32:13;;;;;;;11.70;6.60;;;;;;;;;;5073655;28;20103;-69
2021/09/03 09:34:43;;;;;;;12.43;6.55;;;;;;;;;;5073761;28;20278;-69
2021/09/03 09:37:11;;;;;;;10.63;6.68;;;;;;;;;;5073558;28;20012;-69
2021/09/03 09:39:49;;;;;;;10.70;6.82;;;;;;;;;;5073454;28;20398;-69
2021/09/03 09:42:19;;;;;;;13.68;6.55;;;;;;;;;;5073002;28;20109;-69
2021/09/03 09:44:44;;;;;;;12.52;6.47;;;;;;;;;;5055490;28;20432;-69
2021/09/03 09:47:13;;;;;;;9.87;6.37;;;;;;;;;;5073307;28;20279;-69
2021/09/03 09:49:38;;;;;;;10.70;5.70;;;;;;;;;;5055779;28;20478;-69
2021/09/03 09:52:04;;;;;;;9.15;6.10;;;;;;;;;;5073456;28;20028;-69
2021/09/03 09:54:29;;;;;;;15.60;7.22;;;;;;;;;;5073264;28;20056;-69
2021/09/03 09:56:56;;;;;;;12.80;6.25;;;;;;;;;;5073574;28;20027;-69
2021/09/03 09:59:22;;;;;;;11.88;5.93;;;;;;;;;;5073395;28;20103;-69
2021/09/03 10:01:48;;;;;;;11.05;6.57;;;;;;;;;;5073171;28;20028;-69
2021/09/03 10:04:15;;;;;;;12.98;6.20;;;;;;;;;;5073371;28;20508;-69
2021/09/03 10:06:42;;;;;;;12.75;5.72;;;;;;;;;;5072983;28;20320;-69
2021/09/03 10:09:09;;;;;;;9.38;6.30;;;;;;;;;;5073261;28;20077;-69
2021/09/03 10:11:38;;;;;;;12.82;6.45;;;;;;;;;;5072828;28;20414;-69
2021/09/03 10:14:04;;;;;;;8.07;5.93;;;;;;;;;;5072880;28;20497;-69
2021/09/03 10:16:30;;;;;;;12.02;6.30;;;;;;;;;;5054760;28;20029;-69
2021/09/03 10:18:56;;;;;;;10.93;6.07;;;;;;;;;;5073000;28;20106;-69
2021/09/03 10:21:22;;;;;;;10.35;6.18;;;;;;;;;;5072728;28;20267;-69
2021/09/03 10:23:51;;;;;;;9.40;5.60;;;;;;;;;;5072736;28;20024;-69
2021/09/03 10:26:17;;;;;;;11.68;6.40;;;;;;;;;;5072871;28;20075;-69
2021/09/03 10:28:42;;;;;;;9.75;5.95;;;;;;;;;;5072790;28;20016;-69
2021/09/03 10:31:08;;;;;;;13.07;6.57;;;;;;;;;;5072786;28;20025;-69
2021/09/03 10:33:34;;;;;;;9.15;6.40;;;;;;;;;;5072559;28;20025;-69
2021/09/03 10:35:59;;;;;;;10.45;5.38;;;;;;;;;;5073199;28;20021;-69
2021/09/03 10:38:29;;;;;;;9.88;5.35;;;;;;;;;;5072327;28;20397;-69
2021/09/03 10:40:55;;;;;;;12.85;6.55;;;;;;;;;;5072264;28;20025;-69
2021/09/03 10:43:38;;;;;;;12.32;6.20;;;;;;;;;;5053336;28;20437;-69
2021/09/03 10:46:03;;;;;;;8.25;5.22;;;;;;;;;;5072337;28;20464;-69
2021/09/03 10:48:31;;;;;;;8.20;5.38;;;;;;;;;;5072116;28;20051;-69
2021/09/03 10:50:57;;;;;;;14.88;4.88;;;;;;;;;;5072161;28;20020;-69
2021/09/03 10:53:24;;;;;;;8.93;5.38;;;;;;;;;;5071972;28;20027;-69
2021/09/03 10:55:55;;;;;;;8.63;5.40;;;;;;;;;;5072359;28;20023;-69
2021/09/03 10:58:30;;;;;;;11.65;4.80;;;;;;;;;;5071970;28;20052;-69
2021/09/03 11:03:49;;;;;;;6.60;5.05;;;;;;;;;;5071705;28;20031;-69
2021/09/03 11:06:15;;;;;;;7.32;5.35;;;;;;;;;;5072006;28;20016;-69
2021/09/03 11:08:42;;;;;;;10.20;5.85;;;;;;;;;;5071771;28;20024;-69
2021/09/03 11:11:22;;;;;;;8.98;5.70;;;;;;;;;;5071888;28;20016;-69
2021/09/03 11:13:49;;;;;;;9.07;5.70;;;;;;;;;;5071956;28;20017;-69
2021/09/03 11:16:30;;;;;;;10.55;5.10;;;;;;;;;;5054005;28;20435;-69
2021/09/03 11:19:12;;;;;;;11.88;5.38;;;;;;;;;;5071750;28;20020;-69
2021/09/03 11:21:58;;;;;;;11.32;5.63;;;;;;;;;;5071531;28;20025;-69
2021/09/03 11:24:24;;;;;;;10.13;5.90;;;;;;;;;;5071675;28;20023;-69
2021/09/03 11:26:51;;;;;;;10.07;5.78;;;;;;;;;;5071835;28;20013;-69
2021/09/03 11:29:39;;;;;;;8.75;5.28;;;;;;;;;;5071587;28;20386;-69
2021/09/03 11:32:05;;;;;;;8.50;4.40;;;;;;;;;;5060300;28;20518;-69
2021/09/03 11:34:40;;;;;;;10.60;5.07;;;;;;;;;;5071184;28;20074;-69
2021/09/03 11:37:05;;;;;;;11.95;5.18;;;;;;;;;;5071395;28;20042;-69
2021/09/03 11:39:33;;;;;;;12.27;5.80;;;;;;;;;;5071165;28;20032;-69
2021/09/03 11:41:58;;;;;;;12.88;5.40;;;;;;;;;;5071183;28;20310;-69
2021/09/03 11:44:23;;;;;;;9.20;5.60;;;;;;;;;;5070913;28;20067;-69
2021/09/03 11:46:48;;;;;;;13.13;5.20;;;;;;;;;;5071081;28;20298;-69
2021/09/03 11:49:20;;;;;;;11.07;5.37;;;;;;;;;;5071181;28;20262;-69
2021/09/03 11:51:45;;;;;;;7.38;5.05;;;;;;;;;;5071281;28;20267;-69
2021/09/03 11:54:14;;;;;;;10.17;4.90;;;;;;;;;;5071049;28;20063;-69
2021/09/03 11:56:40;;;;;;;6.55;4.25;;;;;;;;;;5070858;28;20078;-69
2021/09/03 11:59:05;;;;;;;8.90;5.00;;;;;;;;;;5071042;28;20428;-69
2021/09/03 12:01:31;;;;;;;7.50;4.72;;;;;;;;;;5070545;28;20021;-69
2021/09/03 12:03:58;;;;;;;8.38;5.28;;;;;;;;;;5070680;28;20024;-69
2021/09/03 12:06:24;;;;;;;12.48;5.30;;;;;;;;;;5070627;28;20103;-69
2021/09/03 12:08:50;;;;;;;8.73;5.60;;;;;;;;;;5070627;28;20100;-69
2021/09/03 12:11:19;;;;;;;8.15;4.70;;;;;;;;;;5070515;28;20103;-69
2021/09/03 12:13:53;;;;;;;9.55;5.65;;;;;;;;;;5070656;28;20025;-69
2021/09/03 12:16:26;;;;;;;9.02;5.00;;;;;;;;;;5070516;28;20093;-69
2021/09/03 12:18:56;;;;;;;8.82;5.18;;;;;;;;;;5070486;28;20032;-69
2021/09/03 12:21:25;;;;;;;7.78;5.18;;;;;;;;;;5070452;28;20023;-69
2021/09/03 12:23:54;;;;;;;12.50;5.47;;;;;;;;;;5070412;28;20059;-69
2021/09/03 12:26:21;;;;;;;11.05;5.15;;;;;;;;;;5070738;28;20020;-69
2021/09/03 12:28:48;;;;;;;9.45;5.35;;;;;;;;;;5052610;28;20021;-69
2021/09/03 12:31:14;;;;;;;6.40;4.55;;;;;;;;;;5070868;28;20065;-69
2021/09/03 12:34:05;;;;;;;6.80;5.07;;;;;;;;;;5070229;28;20024;-69
2021/09/03 12:36:32;;;;;;;8.90;3.97;;;;;;;;;;5049023;28;20032;-69
2021/09/03 12:38:58;;;;;;;8.45;5.07;;;;;;;;;;5070332;28;20020;-69
2021/09/03 12:41:28;;;;;;;11.60;4.75;;;;;;;;;;5070064;28;20024;-69
2021/09/03 12:43:57;;;;;;;5.95;3.67;;;;;;;;;;5069867;28;20027;-69
2021/09/03 12:46:22;;;;;;;7.35;4.35;;;;;;;;;;5070155;28;20106;-69
2021/09/03 12:49:20;;;;;;;6.57;4.13;;;;;;;;;;5070160;28;20428;-69
2021/09/03 12:51:47;;;;;;;6.82;4.57;;;;;;;;;;5025217;28;20475;-69
2021/09/03 12:54:13;;;;;;;8.52;4.53;;;;;;;;;;5070159;28;20028;-69
2021/09/03 12:56:38;;;;;;;6.28;4.35;;;;;;;;;;5127954;22;20039;-71
2021/09/03 12:59:04;;;;;;;5.93;3.83;;;;;;;;;;5104543;28;20027;-72
2021/09/03 13:01:33;;;;;;;8.85;4.72;;;;;;;;;;5110560;28;20023;-72
2021/09/03 13:03:59;;;;;;;8.95;4.22;;;;;;;;;;5110667;28;20015;-71
2021/09/03 13:06:24;;;;;;;7.50;4.68;;;;;;;;;;5130244;27;20011;-72
2021/09/03 13:08:50;;;;;;;7.35;4.70;;;;;;;;;;5135832;27;20465;-71
2021/09/03 13:11:15;;;;;;;8.50;4.25;;;;;;;;;;5135816;27;20034;-72
2021/09/03 13:13:42;;;;;;;7.57;5.00;;;;;;;;;;5135076;27;20029;-72
2021/09/03 13:16:07;;;;;;;6.63;4.60;;;;;;;;;;5135374;27;20075;-72
2021/09/03 13:18:33;;;;;;;7.75;5.15;;;;;;;;;;5135152;27;20023;-72
2021/09/03 13:20:59;;;;;;;8.90;4.70;;;;;;;;;;5135176;27;20047;-72
2021/09/03 13:23:24;;;;;;;8.73;4.93;;;;;;;;;;5134838;27;20055;-71
2021/09/03 13:25:49;;;;;;;7.20;4.68;;;;;;;;;;5135267;27;20071;-72
2021/09/03 13:28:14;;;;;;;9.65;4.57;;;;;;;;;;5135167;27;20099;-72
2021/09/03 13:30:39;;;;;;;8.70;5.27;;;;;;;;;;5135077;27;20028;-72
2021/09/03 13:33:05;;;;;;;7.82;5.03;;;;;;;;;;5135093;27;20310;-71
2021/09/03 13:35:30;;;;;;;10.33;4.87;;;;;;;;;;5134776;27;20019;-71
2021/09/03 13:37:55;;;;;;;7.50;4.37;;;;;;;;;;5135040;27;20256;-71
2021/09/03 13:40:20;;;;;;;6.43;4.38;;;;;;;;;;5134590;27;20449;-71
2021/09/03 13:42:50;;;;;;;8.87;4.47;;;;;;;;;;5134584;27;20280;-71
2021/09/03 13:45:15;;;;;;;6.68;4.15;;;;;;;;;;5134761;27;20309;-70
2021/09/03 13:47:41;;;;;;;7.78;3.53;;;;;;;;;;5134855;27;20473;-71
2021/09/03 13:50:07;;;;;;;14.43;4.50;;;;;;;;;;5134929;27;20045;-71
2021/09/03 13:52:32;;;;;;;8.57;4.75;;;;;;;;;;5134159;27;20075;-71
2021/09/03 13:54:57;;;;;;;9.25;4.43;;;;;;;;;;5134304;27;20068;-71
2021/09/03 13:57:23;;;;;;;11.10;4.57;;;;;;;;;;5134424;27;20027;-71
2021/09/03 13:59:48;;;;;;;8.50;4.63;;;;;;;;;;5134514;27;20026;-71
2021/09/03 14:02:14;;;;;;;10.55;3.75;;;;;;;;;;5134341;27;20027;-71
2021/09/03 14:04:39;;;;;;;7.53;5.00;;;;;;;;;;5134249;27;20031;-71
2021/09/03 14:07:05;;;;;;;5.93;4.20;;;;;;;;;;5134340;27;20011;-71
2021/09/03 14:09:31;;;;;;;7.28;4.60;;;;;;;;;;5134109;27;20252;-71
2021/09/03 14:11:57;;;;;;;11.60;4.68;;;;;;;;;;5134087;27;20481;-71
2021/09/03 14:14:22;;;;;;;11.77;4.65;;;;;;;;;;5134163;27;20056;-70
2021/09/03 14:16:47;;;;;;;5.90;3.77;;;;;;;;;;5134110;27;20507;-71
2021/09/03 14:19:12;;;;;;;10.03;3.80;;;;;;;;;;5134112;27;20097;-71
2021/09/03 14:21:38;;;;;;;6.93;4.57;;;;;;;;;;5134002;27;20280;-71
2021/09/03 14:24:03;;;;;;;6.53;3.83;;;;;;;;;;5134269;27;20055;-71
2021/09/03 14:26:28;;;;;;;8.05;4.70;;;;;;;;;;5134012;27;20019;-71
2021/09/03 14:28:53;;;;;;;8.88;4.25;;;;;;;;;;5134075;27;20372;-70